Weather reports worldwide

Advertisment
Lons-Le-Saunier, France (7390): temperature & dewpoint: 06.11.2019 17:00:00 - 12.11.2019 17:00:00 (CET)Lons-Le-Saunier, France (7390): wind speed & gusts: 06.11.2019 17:00:00 - 12.11.2019 17:00:00 (CET)Lons-Le-Saunier, France (7390): wind direction: 06.11.2019 17:00:00 - 12.11.2019 17:00:00 (CET)Lons-Le-Saunier, France (7390): precipitation: 06.11.2019 17:00:00 - 12.11.2019 17:00:00 (CET)
Date & Time tt [°C] td [°C] ff [km/h] ff [kn] fx [km/h] fx [kn] dd rr [mm]
12.11.2019 17:00:00 - - - - - - - -
12.11.2019 16:00:00 7,6 3,6 13 7 22 12 SSW 0,0
12.11.2019 15:00:00 8,5 4,1 15 8 26 14 SW 0,0
12.11.2019 14:00:00 8,0 3,5 15 8 28 15 SSW 0,0
12.11.2019 13:00:00 7,9 3,0 16 9 28 15 SW -
12.11.2019 12:00:00 7,9 3,2 18 10 28 15 SSW 0,0
12.11.2019 11:00:00 7,8 3,3 18 10 28 15 SSW 0,0
12.11.2019 10:00:00 6,9 4,0 11 6 21 11 SSE 0,0
12.11.2019 09:00:00 4,5 2,8 13 7 18 10 SSE 0,0
12.11.2019 08:00:00 2,9 1,9 8 4 15 8 SE 0,0
12.11.2019 07:00:00 3,5 2,5 8 4 11 6 SE -
12.11.2019 06:00:00 3,9 2,7 8 4 13 7 SSE 0,0
12.11.2019 05:00:00 3,9 2,7 8 4 15 8 SSE 0,0
12.11.2019 04:00:00 3,8 2,9 11 6 18 10 SSW 0,0
12.11.2019 03:00:00 4,3 3,6 11 6 18 10 S 0,0
12.11.2019 02:00:00 4,4 4,0 11 6 18 10 SSW 0,0
12.11.2019 01:00:00 4,5 4,1 11 6 16 9 SSW -
12.11.2019 00:00:00 5,0 4,4 11 6 21 11 SSW 0,0
11.11.2019 23:00:00 5,6 4,9 11 6 22 12 SW 0,0
11.11.2019 22:00:00 5,9 5,0 15 8 28 15 SSW 0,0
11.11.2019 21:00:00 6,0 4,8 15 8 26 14 WSW 0,4
11.11.2019 20:00:00 6,3 4,6 9 5 18 10 SSW 0,8
11.11.2019 19:00:00 6,7 3,7 11 6 18 10 SSE -
11.11.2019 18:00:00 7,3 3,2 11 6 18 10 SSW 0,0
11.11.2019 17:00:00 7,7 3,0 9 5 22 12 S 0,0
11.11.2019 16:00:00 8,4 3,0 13 7 29 16 SSE 0,0
11.11.2019 15:00:00 8,4 3,0 16 9 24 13 S 0,0
11.11.2019 14:00:00 8,0 3,8 15 8 24 13 SSW 0,0
11.11.2019 13:00:00 7,9 4,7 11 6 18 10 SSW -
11.11.2019 12:00:00 5,9 4,4 9 5 16 9 S 0,0
11.11.2019 11:00:00 5,2 3,5 8 4 11 6 SSW 0,0
11.11.2019 10:00:00 3,8 2,5 4 2 15 8 SSW 0,0
11.11.2019 09:00:00 2,6 1,4 11 6 18 10 SE 0,0
11.11.2019 08:00:00 1,6 1,0 8 4 11 6 SSE 0,0
11.11.2019 07:00:00 1,2 0,6 5 3 16 9 SSE -
11.11.2019 06:00:00 0,5 0,4 11 6 15 8 ESE 0,0
11.11.2019 05:00:00 0,1 0,1 8 4 13 7 ESE 0,0
11.11.2019 04:00:00 1,1 0,4 4 2 16 9 WNW 0,0
11.11.2019 03:00:00 2,9 0,9 11 6 22 12 E 0,0
11.11.2019 02:00:00 2,1 1,1 13 7 16 9 ESE 0,0
11.11.2019 01:00:00 2,1 1,7 9 5 11 6 ESE -
11.11.2019 00:00:00 2,4 1,7 4 2 9 5 E 0,0
10.11.2019 23:00:00 2,7 2,3 5 3 11 6 ESE 0,0
10.11.2019 22:00:00 3,4 3,0 5 3 9 5 N 0,0
10.11.2019 21:00:00 3,7 2,7 8 4 11 6 E 0,0
10.11.2019 20:00:00 4,3 3,3 8 4 11 6 ESE 0,0
10.11.2019 19:00:00 5,0 4,0 8 4 9 5 ESE -
10.11.2019 18:00:00 6,4 4,6 8 4 13 7 N 0,0
10.11.2019 17:00:00 7,4 4,5 5 3 8 4 NNW 0,0
10.11.2019 16:00:00 7,9 4,1 5 3 11 6 N 0,0
10.11.2019 15:00:00 8,3 3,7 2 1 5 3 NE 0,0
10.11.2019 14:00:00 8,1 3,2 4 2 8 4 NNW 0,0
10.11.2019 13:00:00 8,0 3,6 0 0 11 6 N -
10.11.2019 12:00:00 8,0 3,5 8 4 22 12 SW 0,0
10.11.2019 11:00:00 7,7 3,7 15 8 22 12 W 0,0
10.11.2019 10:00:00 7,2 4,3 8 4 15 8 SSE 0,0
10.11.2019 09:00:00 5,9 3,7 11 6 18 10 SSE 0,0
10.11.2019 08:00:00 6,1 3,6 8 4 16 9 SSW 0,0
10.11.2019 07:00:00 5,7 3,7 8 4 22 12 S -
10.11.2019 06:00:00 5,4 3,6 13 7 29 16 SSE 0,0
10.11.2019 05:00:00 5,4 3,2 15 8 41 22 S 0,2
10.11.2019 04:00:00 5,3 3,3 16 9 34 18 SSW 0,0
10.11.2019 03:00:00 5,4 2,4 18 10 28 15 SW 0,0
10.11.2019 02:00:00 4,6 2,1 15 8 28 15 SE 0,0
10.11.2019 01:00:00 3,5 1,9 13 7 24 13 ESE -
10.11.2019 00:00:00 3,5 1,9 13 7 22 12 ESE 0,0
09.11.2019 23:00:00 3,5 2,2 9 5 15 8 ESE 0,0
09.11.2019 22:00:00 4,2 2,4 8 4 15 8 ESE 0,0
09.11.2019 21:00:00 4,1 2,6 9 5 15 8 ESE 0,0
09.11.2019 20:00:00 4,3 3,0 8 4 13 7 ESE 0,0
09.11.2019 19:00:00 4,9 3,2 8 4 11 6 E -
09.11.2019 18:00:00 5,9 3,4 8 4 11 6 SE 0,0
09.11.2019 17:00:00 7,7 4,1 8 4 11 6 SSW 0,0
09.11.2019 16:00:00 9,3 4,1 9 5 18 10 SSW 0,0
09.11.2019 15:00:00 8,9 3,9 8 4 15 8 W 0,0
09.11.2019 14:00:00 8,4 4,2 8 4 16 9 W 0,0
09.11.2019 13:00:00 10,0 4,6 4 2 11 6 WSW -
09.11.2019 12:00:00 8,1 4,7 4 2 8 4 SW 0,0
09.11.2019 11:00:00 6,4 5,3 4 2 9 5 SSW 0,0
09.11.2019 10:00:00 5,2 5,1 8 4 13 7 SW 0,0
09.11.2019 09:00:00 4,7 4,7 4 2 11 6 W 0,0
09.11.2019 08:00:00 4,3 4,3 5 3 8 4 SE 0,0
09.11.2019 07:00:00 4,4 4,4 4 2 8 4 SSE -
09.11.2019 06:00:00 4,3 4,3 4 2 11 6 SSW 0,0
09.11.2019 05:00:00 4,2 4,2 8 4 11 6 WSW 0,0
09.11.2019 04:00:00 4,0 4,0 4 2 8 4 SE 0,0
09.11.2019 03:00:00 3,5 3,5 4 2 8 4 S 0,0
09.11.2019 02:00:00 3,3 3,3 2 1 5 3 WNW 0,0
09.11.2019 01:00:00 3,8 3,7 2 1 11 6 NW -
09.11.2019 00:00:00 4,2 4,1 8 4 11 6 WNW 0,0
08.11.2019 23:00:00 5,1 4,7 4 2 5 3 NW 0,0
08.11.2019 22:00:00 5,6 4,6 4 2 5 3 SSW 0,0
08.11.2019 21:00:00 5,4 4,5 2 1 9 5 WNW 0,0
08.11.2019 20:00:00 5,2 4,3 9 5 11 6 ENE 0,0
08.11.2019 19:00:00 6,2 4,5 8 4 15 8 ENE -
08.11.2019 18:00:00 7,6 4,5 9 5 16 9 N 0,0
08.11.2019 17:00:00 8,7 4,7 4 2 13 7 NNW 0,0
08.11.2019 16:00:00 9,6 5,0 8 4 15 8 NW 0,0
08.11.2019 15:00:00 11,8 4,3 8 4 15 8 WSW 0,0
08.11.2019 14:00:00 10,3 4,6 2 1 9 5 W 0,0
08.11.2019 13:00:00 10,1 4,2 0 0 13 7 N -
08.11.2019 12:00:00 9,5 5,5 5 3 9 5 NE 0,0
08.11.2019 11:00:00 8,1 4,7 4 2 11 6 SSW 0,0
08.11.2019 10:00:00 9,0 5,2 4 2 13 7 S 0,0
08.11.2019 09:00:00 6,0 5,1 8 4 11 6 SE 0,0
08.11.2019 08:00:00 5,4 4,7 8 4 13 7 ESE 0,0
08.11.2019 07:00:00 6,1 5,1 8 4 15 8 ESE -
08.11.2019 06:00:00 6,2 5,3 8 4 11 6 ESE 0,0
08.11.2019 05:00:00 6,1 5,4 5 3 18 10 ESE 0,0
08.11.2019 04:00:00 6,0 5,3 9 5 13 7 ESE 0,0
08.11.2019 03:00:00 6,2 5,9 8 4 13 7 ESE 0,0
08.11.2019 02:00:00 6,1 5,8 8 4 13 7 E 2,0
08.11.2019 01:00:00 6,4 5,3 4 2 13 7 S -
08.11.2019 00:00:00 6,3 5,4 9 5 28 15 NW 0,0
07.11.2019 23:00:00 7,2 4,0 11 6 16 9 SE 0,0
07.11.2019 22:00:00 6,7 3,5 8 4 16 9 SE 0,0
07.11.2019 21:00:00 7,0 3,8 9 5 18 10 ESE 0,0
07.11.2019 20:00:00 7,1 4,6 13 7 21 11 SSE 0,0
07.11.2019 19:00:00 7,1 5,2 11 6 15 8 SE -
07.11.2019 18:00:00 7,3 4,6 8 4 11 6 SE 0,0
07.11.2019 17:00:00 8,4 3,8 5 3 13 7 SSE 0,0
07.11.2019 16:00:00 8,6 4,0 13 7 26 14 SW 0,0
07.11.2019 15:00:00 9,7 4,5 15 8 34 18 SW 0,0
07.11.2019 14:00:00 9,6 6,5 18 10 31 17 SW 0,0
07.11.2019 13:00:00 9,6 5,9 18 10 48 26 SSW -
07.11.2019 12:00:00 9,6 6,7 26 14 50 27 SW 0,0
07.11.2019 11:00:00 8,6 6,6 21 11 50 27 SSW 0,2
07.11.2019 10:00:00 8,5 6,3 24 13 48 26 WSW 0,2
07.11.2019 09:00:00 8,9 5,6 31 17 67 36 S 0,2
07.11.2019 08:00:00 8,0 5,6 35 19 59 32 S 3,0
07.11.2019 07:00:00 8,6 5,0 24 13 46 25 S -
07.11.2019 06:00:00 8,3 3,7 22 12 48 26 S 0,0
07.11.2019 05:00:00 7,9 3,5 22 12 37 20 SSE 0,0
07.11.2019 04:00:00 7,7 4,1 18 10 31 17 SSE 0,0
07.11.2019 03:00:00 7,0 3,6 9 5 24 13 S 0,0
07.11.2019 02:00:00 6,9 4,2 13 7 18 10 SSE 0,0
07.11.2019 01:00:00 7,7 4,5 11 6 18 10 SSE -
07.11.2019 00:00:00 8,3 4,9 8 4 16 9 S 0,0
06.11.2019 23:00:00 8,6 5,2 8 4 13 7 S 0,0
06.11.2019 22:00:00 8,7 5,4 11 6 22 12 S 0,0
06.11.2019 21:00:00 8,4 6,0 8 4 11 6 SSE 0,0
06.11.2019 20:00:00 8,3 6,3 8 4 15 8 SSE 0,0
06.11.2019 19:00:00 8,2 6,5 11 6 15 8 SSE -
06.11.2019 18:00:00 8,7 6,3 4 2 15 8 S 1,0
06.11.2019 17:00:00 9,9 6,8 9 5 18 10 S 0,0

tt = temperature
td = dewpoint
ff = wind speed
fx = gusts
dd = wind direction
rr = precipitation

Next stations